Betera, Spain
Current Conditions -  °F | °C
As of 11:00 AM on Wednesday 22 Oct 2014 (Local Time) from LEBT Reporting Station
Clear Clear  
Wind Chill: 77°   Ceiling: Unl
Heat Index: 77°   Visibility: 6mi
Dew Point: 32°   Wind: 8mph
Humidity: 19%   Direction: 330°NNW
Pressure: 30.21"   Gusts: 20mph
Location:  39.58°N, 0.45°W
Report Text: LEBT 220900Z AUTO 33007G17KT 260V010 CAVOK 25/M00 Q1023
Loading
Personal Weather Stations






























Interactive Weather Map
Tropical Storm Tracking
New forecast layout! Learn more

10-Day Weather Forecast

Advertisements
Track Severe Weather on mobile